sensor_id;sensor_type;location;lat;lon;timestamp;temperature;humidity
50067;DHT22;35952;52.524;13.340;2022-12-18T00:01:53;-4.50;99.90
50067;DHT22;35952;52.524;13.340;2022-12-18T00:04:23;-4.30;99.90
50067;DHT22;35952;52.524;13.340;2022-12-18T00:06:49;-4.50;99.90
50067;DHT22;35952;52.524;13.340;2022-12-18T00:09:15;-4.60;99.90
50067;DHT22;35952;52.524;13.340;2022-12-18T00:11:41;-4.30;99.90
50067;DHT22;35952;52.524;13.340;2022-12-18T00:14:09;-4.30;99.90
50067;DHT22;35952;52.524;13.340;2022-12-18T00:16:35;-4.20;99.90
50067;DHT22;35952;52.524;13.340;2022-12-18T00:19:03;-4.20;99.90
50067;DHT22;35952;52.524;13.340;2022-12-18T00:21:30;-4.30;99.90
50067;DHT22;35952;52.524;13.340;2022-12-18T00:23:56;-4.40;99.90
50067;DHT22;35952;52.524;13.340;2022-12-18T00:26:24;-4.40;99.90
50067;DHT22;35952;52.524;13.340;2022-12-18T00:28:51;-4.60;99.90
50067;DHT22;35952;52.524;13.340;2022-12-18T00:31:20;-4.50;99.90
50067;DHT22;35952;52.524;13.340;2022-12-18T00:33:46;-4.70;99.90
50067;DHT22;35952;52.524;13.340;2022-12-18T00:36:19;-4.80;99.90
50067;DHT22;35952;52.524;13.340;2022-12-18T00:38:45;-4.60;99.90
50067;DHT22;35952;52.524;13.340;2022-12-18T00:41:12;-4.70;99.90
50067;DHT22;35952;52.524;13.340;2022-12-18T00:43:38;-4.90;99.90
50067;DHT22;35952;52.524;13.340;2022-12-18T00:46:05;-5.10;99.90
50067;DHT22;35952;52.524;13.340;2022-12-18T00:48:31;-5.30;99.90
50067;DHT22;35952;52.524;13.340;2022-12-18T00:50:57;-5.20;99.90
50067;DHT22;35952;52.524;13.340;2022-12-18T00:53:22;-5.20;99.90
50067;DHT22;35952;52.524;13.340;2022-12-18T00:55:48;-5.30;99.90
50067;DHT22;35952;52.524;13.340;2022-12-18T00:58:16;-5.20;99.90
50067;DHT22;35952;52.524;13.340;2022-12-18T01:00:42;-5.20;99.90
50067;DHT22;35952;52.524;13.340;2022-12-18T01:03:09;-5.20;99.90
50067;DHT22;35952;52.524;13.340;2022-12-18T01:05:38;-5.10;99.90
50067;DHT22;35952;52.524;13.340;2022-12-18T01:08:04;-5.10;99.90
50067;DHT22;35952;52.524;13.340;2022-12-18T01:10:29;-5.00;99.90
50067;DHT22;35952;52.524;13.340;2022-12-18T01:12:55;-4.90;99.90
50067;DHT22;35952;52.524;13.340;2022-12-18T01:15:21;-5.10;99.90
50067;DHT22;35952;52.524;13.340;2022-12-18T01:17:46;-4.90;99.90
50067;DHT22;35952;52.524;13.340;2022-12-18T01:20:12;-4.80;99.90
50067;DHT22;35952;52.524;13.340;2022-12-18T01:22:38;-4.70;99.90
50067;DHT22;35952;52.524;13.340;2022-12-18T01:25:04;-4.60;99.90
50067;DHT22;35952;52.524;13.340;2022-12-18T01:27:31;-4.90;99.90
50067;DHT22;35952;52.524;13.340;2022-12-18T01:29:57;-5.20;99.90
50067;DHT22;35952;52.524;13.340;2022-12-18T01:32:23;-5.10;99.90
50067;DHT22;35952;52.524;13.340;2022-12-18T01:34:48;-5.30;99.90
50067;DHT22;35952;52.524;13.340;2022-12-18T01:37:14;-5.20;99.90
50067;DHT22;35952;52.524;13.340;2022-12-18T01:39:39;-5.20;99.90
50067;DHT22;35952;52.524;13.340;2022-12-18T01:42:12;-5.30;99.90
50067;DHT22;35952;52.524;13.340;2022-12-18T01:45:03;-5.20;99.90
50067;DHT22;35952;52.524;13.340;2022-12-18T01:47:45;-5.30;99.90
50067;DHT22;35952;52.524;13.340;2022-12-18T01:50:32;-5.20;99.90
50067;DHT22;35952;52.524;13.340;2022-12-18T01:53:11;-5.10;99.90
50067;DHT22;35952;52.524;13.340;2022-12-18T01:55:43;-5.00;99.90
50067;DHT22;35952;52.524;13.340;2022-12-18T01:58:12;-4.90;99.90
50067;DHT22;35952;52.524;13.340;2022-12-18T02:00:37;-4.80;99.90
50067;DHT22;35952;52.524;13.340;2022-12-18T02:03:03;-4.80;99.90
50067;DHT22;35952;52.524;13.340;2022-12-18T02:05:48;-4.90;99.90
50067;DHT22;35952;52.524;13.340;2022-12-18T02:08:26;-5.00;99.90
50067;DHT22;35952;52.524;13.340;2022-12-18T02:14:21;-5.40;99.90
50067;DHT22;35952;52.524;13.340;2022-12-18T02:22:39;-5.10;99.90
50067;DHT22;35952;52.524;13.340;2022-12-18T02:25:38;-5.10;99.90
50067;DHT22;35952;52.524;13.340;2022-12-18T02:28:08;-5.10;99.90
50067;DHT22;35952;52.524;13.340;2022-12-18T02:30:37;-5.10;99.90
50067;DHT22;35952;52.524;13.340;2022-12-18T02:33:06;-5.00;99.90
50067;DHT22;35952;52.524;13.340;2022-12-18T02:35:34;-5.40;99.90
50067;DHT22;35952;52.524;13.340;2022-12-18T02:38:02;-5.30;99.90
50067;DHT22;35952;52.524;13.340;2022-12-18T02:40:28;-5.30;99.90
50067;DHT22;35952;52.524;13.340;2022-12-18T02:42:54;-5.30;99.90
50067;DHT22;35952;52.524;13.340;2022-12-18T02:45:20;-5.20;99.90
50067;DHT22;35952;52.524;13.340;2022-12-18T02:47:48;-5.10;99.90
50067;DHT22;35952;52.524;13.340;2022-12-18T02:56:02;-5.20;99.90
50067;DHT22;35952;52.524;13.340;2022-12-18T02:58:58;-5.20;99.90
50067;DHT22;35952;52.524;13.340;2022-12-18T03:01:35;-5.00;99.90
50067;DHT22;35952;52.524;13.340;2022-12-18T03:04:14;-4.80;99.90
50067;DHT22;35952;52.524;13.340;2022-12-18T03:06:42;-5.00;99.90
50067;DHT22;35952;52.524;13.340;2022-12-18T03:09:22;-5.20;99.90
50067;DHT22;35952;52.524;13.340;2022-12-18T03:11:55;-5.30;99.90
50067;DHT22;35952;52.524;13.340;2022-12-18T03:14:41;-5.50;99.90
50067;DHT22;35952;52.524;13.340;2022-12-18T03:17:13;-5.30;99.90
50067;DHT22;35952;52.524;13.340;2022-12-18T03:19:40;-5.20;99.90
50067;DHT22;35952;52.524;13.340;2022-12-18T03:22:07;-5.30;99.90
50067;DHT22;35952;52.524;13.340;2022-12-18T03:24:34;-5.40;99.90
50067;DHT22;35952;52.524;13.340;2022-12-18T03:27:06;-5.50;99.90
50067;DHT22;35952;52.524;13.340;2022-12-18T03:29:37;-5.70;99.90
50067;DHT22;35952;52.524;13.340;2022-12-18T03:32:08;-5.90;99.90
50067;DHT22;35952;52.524;13.340;2022-12-18T03:34:36;-5.80;99.90
50067;DHT22;35952;52.524;13.340;2022-12-18T03:37:03;-5.80;99.90
50067;DHT22;35952;52.524;13.340;2022-12-18T03:39:30;-5.80;99.90
50067;DHT22;35952;52.524;13.340;2022-12-18T03:47:23;-5.30;99.90
50067;DHT22;35952;52.524;13.340;2022-12-18T03:52:35;-5.30;99.90
50067;DHT22;35952;52.524;13.340;2022-12-18T03:55:02;-5.30;99.90
50067;DHT22;35952;52.524;13.340;2022-12-18T03:57:30;-5.30;99.90
50067;DHT22;35952;52.524;13.340;2022-12-18T04:00:05;-5.30;99.90
50067;DHT22;35952;52.524;13.340;2022-12-18T04:02:32;-5.40;99.90
50067;DHT22;35952;52.524;13.340;2022-12-18T04:05:01;-5.50;99.90
50067;DHT22;35952;52.524;13.340;2022-12-18T04:07:30;-5.40;99.90
50067;DHT22;35952;52.524;13.340;2022-12-18T04:09:58;-5.60;99.90
50067;DHT22;35952;52.524;13.340;2022-12-18T04:12:25;-5.60;99.90
50067;DHT22;35952;52.524;13.340;2022-12-18T04:14:54;-5.70;99.90
50067;DHT22;35952;52.524;13.340;2022-12-18T04:17:20;-5.70;99.90
50067;DHT22;35952;52.524;13.340;2022-12-18T04:19:45;-5.80;99.90
50067;DHT22;35952;52.524;13.340;2022-12-18T04:22:11;-5.80;99.90
50067;DHT22;35952;52.524;13.340;2022-12-18T04:24:37;-5.70;99.90
50067;DHT22;35952;52.524;13.340;2022-12-18T04:27:03;-5.50;99.90
50067;DHT22;35952;52.524;13.340;2022-12-18T04:29:28;-5.50;99.90
50067;DHT22;35952;52.524;13.340;2022-12-18T04:31:54;-5.50;99.90
50067;DHT22;35952;52.524;13.340;2022-12-18T04:34:20;-5.40;99.90
50067;DHT22;35952;52.524;13.340;2022-12-18T04:36:46;-5.40;99.90
50067;DHT22;35952;52.524;13.340;2022-12-18T04:39:11;-5.50;99.90
50067;DHT22;35952;52.524;13.340;2022-12-18T04:41:37;-5.60;99.90
50067;DHT22;35952;52.524;13.340;2022-12-18T04:44:03;-5.70;99.90
50067;DHT22;35952;52.524;13.340;2022-12-18T04:46:28;-5.70;99.90
50067;DHT22;35952;52.524;13.340;2022-12-18T04:48:54;-5.60;99.90
50067;DHT22;35952;52.524;13.340;2022-12-18T04:51:19;-5.50;99.90
50067;DHT22;35952;52.524;13.340;2022-12-18T04:53:45;-5.80;99.90
50067;DHT22;35952;52.524;13.340;2022-12-18T04:56:13;-5.70;99.90
50067;DHT22;35952;52.524;13.340;2022-12-18T04:58:40;-5.50;99.90
50067;DHT22;35952;52.524;13.340;2022-12-18T05:01:06;-5.50;99.90
50067;DHT22;35952;52.524;13.340;2022-12-18T05:03:36;-5.50;99.90
50067;DHT22;35952;52.524;13.340;2022-12-18T05:06:02;-5.50;99.90
50067;DHT22;35952;52.524;13.340;2022-12-18T05:08:28;-5.60;99.90
50067;DHT22;35952;52.524;13.340;2022-12-18T05:11:00;-5.70;99.90
50067;DHT22;35952;52.524;13.340;2022-12-18T05:13:27;-5.80;99.90
50067;DHT22;35952;52.524;13.340;2022-12-18T05:15:54;-5.80;99.90
50067;DHT22;35952;52.524;13.340;2022-12-18T05:18:19;-5.90;99.90
50067;DHT22;35952;52.524;13.340;2022-12-18T05:20:45;-5.90;99.90
50067;DHT22;35952;52.524;13.340;2022-12-18T05:23:10;-6.00;99.90
50067;DHT22;35952;52.524;13.340;2022-12-18T05:25:36;-5.90;99.90
50067;DHT22;35952;52.524;13.340;2022-12-18T05:28:01;-5.70;99.90
50067;DHT22;35952;52.524;13.340;2022-12-18T05:30:27;-5.90;99.90
50067;DHT22;35952;52.524;13.340;2022-12-18T05:32:53;-5.80;99.90
50067;DHT22;35952;52.524;13.340;2022-12-18T05:35:18;-5.70;99.90
50067;DHT22;35952;52.524;13.340;2022-12-18T05:37:44;-5.80;99.90
50067;DHT22;35952;52.524;13.340;2022-12-18T05:40:10;-5.70;99.90
50067;DHT22;35952;52.524;13.340;2022-12-18T05:42:35;-5.80;99.90
50067;DHT22;35952;52.524;13.340;2022-12-18T05:45:01;-5.70;99.90
50067;DHT22;35952;52.524;13.340;2022-12-18T05:47:28;-5.80;99.90
50067;DHT22;35952;52.524;13.340;2022-12-18T05:49:54;-5.60;99.90
50067;DHT22;35952;52.524;13.340;2022-12-18T05:52:19;-5.70;99.90
50067;DHT22;35952;52.524;13.340;2022-12-18T05:54:44;-5.80;99.90
50067;DHT22;35952;52.524;13.340;2022-12-18T05:57:10;-5.80;99.90
50067;DHT22;35952;52.524;13.340;2022-12-18T05:59:35;-5.60;99.90
50067;DHT22;35952;52.524;13.340;2022-12-18T06:02:01;-5.80;99.90
50067;DHT22;35952;52.524;13.340;2022-12-18T06:04:27;-5.70;99.90
50067;DHT22;35952;52.524;13.340;2022-12-18T06:06:55;-5.80;99.90
50067;DHT22;35952;52.524;13.340;2022-12-18T06:09:21;-5.70;99.90
50067;DHT22;35952;52.524;13.340;2022-12-18T06:11:47;-5.80;99.90
50067;DHT22;35952;52.524;13.340;2022-12-18T06:14:12;-5.80;99.90
50067;DHT22;35952;52.524;13.340;2022-12-18T06:16:38;-5.90;99.90
50067;DHT22;35952;52.524;13.340;2022-12-18T06:19:05;-5.90;99.90
50067;DHT22;35952;52.524;13.340;2022-12-18T06:21:31;-5.90;99.90
50067;DHT22;35952;52.524;13.340;2022-12-18T06:23:57;-5.80;99.90
50067;DHT22;35952;52.524;13.340;2022-12-18T06:26:23;-5.90;99.90
50067;DHT22;35952;52.524;13.340;2022-12-18T06:28:49;-5.90;99.90
50067;DHT22;35952;52.524;13.340;2022-12-18T06:31:14;-5.90;99.90
50067;DHT22;35952;52.524;13.340;2022-12-18T06:33:40;-5.90;99.90
50067;DHT22;35952;52.524;13.340;2022-12-18T06:36:11;-5.80;99.90
50067;DHT22;35952;52.524;13.340;2022-12-18T06:38:40;-5.80;99.90
50067;DHT22;35952;52.524;13.340;2022-12-18T06:41:14;-5.70;99.90
50067;DHT22;35952;52.524;13.340;2022-12-18T06:43:41;-5.80;99.90
50067;DHT22;35952;52.524;13.340;2022-12-18T06:46:07;-5.80;99.90
50067;DHT22;35952;52.524;13.340;2022-12-18T06:48:33;-5.70;99.90
50067;DHT22;35952;52.524;13.340;2022-12-18T06:50:59;-5.60;99.90
50067;DHT22;35952;52.524;13.340;2022-12-18T06:53:24;-5.60;99.90
50067;DHT22;35952;52.524;13.340;2022-12-18T06:55:50;-5.60;99.90
50067;DHT22;35952;52.524;13.340;2022-12-18T06:58:16;-5.60;99.90
50067;DHT22;35952;52.524;13.340;2022-12-18T07:00:42;-5.70;99.90
50067;DHT22;35952;52.524;13.340;2022-12-18T07:03:07;-5.70;99.90
50067;DHT22;35952;52.524;13.340;2022-12-18T07:05:33;-5.70;99.90
50067;DHT22;35952;52.524;13.340;2022-12-18T07:07:58;-5.50;99.90
50067;DHT22;35952;52.524;13.340;2022-12-18T07:10:24;-5.50;99.90
50067;DHT22;35952;52.524;13.340;2022-12-18T07:12:50;-5.70;99.90
50067;DHT22;35952;52.524;13.340;2022-12-18T07:15:16;-5.80;99.90
50067;DHT22;35952;52.524;13.340;2022-12-18T07:17:41;-5.80;99.90
50067;DHT22;35952;52.524;13.340;2022-12-18T07:20:07;-5.70;99.90
50067;DHT22;35952;52.524;13.340;2022-12-18T07:22:33;-5.60;99.90
50067;DHT22;35952;52.524;13.340;2022-12-18T07:24:58;-5.60;99.90
50067;DHT22;35952;52.524;13.340;2022-12-18T07:27:24;-5.50;99.90
50067;DHT22;35952;52.524;13.340;2022-12-18T07:29:49;-5.40;99.90
50067;DHT22;35952;52.524;13.340;2022-12-18T07:32:15;-5.40;99.90
50067;DHT22;35952;52.524;13.340;2022-12-18T07:34:41;-5.70;99.90
50067;DHT22;35952;52.524;13.340;2022-12-18T07:37:06;-5.70;99.90
50067;DHT22;35952;52.524;13.340;2022-12-18T07:39:31;-5.80;99.90
50067;DHT22;35952;52.524;13.340;2022-12-18T07:41:57;-5.70;99.90
50067;DHT22;35952;52.524;13.340;2022-12-18T07:44:41;-5.60;99.90
50067;DHT22;35952;52.524;13.340;2022-12-18T07:47:08;-5.50;99.90
50067;DHT22;35952;52.524;13.340;2022-12-18T07:49:33;-5.70;99.90
50067;DHT22;35952;52.524;13.340;2022-12-18T07:51:59;-5.70;99.90
50067;DHT22;35952;52.524;13.340;2022-12-18T07:54:25;-5.70;99.90
50067;DHT22;35952;52.524;13.340;2022-12-18T07:56:51;-5.60;99.90
50067;DHT22;35952;52.524;13.340;2022-12-18T07:59:17;-5.60;99.90
50067;DHT22;35952;52.524;13.340;2022-12-18T08:01:43;-5.50;99.90
50067;DHT22;35952;52.524;13.340;2022-12-18T08:04:09;-5.50;99.90
50067;DHT22;35952;52.524;13.340;2022-12-18T08:06:35;-5.40;99.90
50067;DHT22;35952;52.524;13.340;2022-12-18T08:09:01;-5.30;99.90
50067;DHT22;35952;52.524;13.340;2022-12-18T08:11:27;-5.10;99.90
50067;DHT22;35952;52.524;13.340;2022-12-18T08:13:54;-5.00;99.90
50067;DHT22;35952;52.524;13.340;2022-12-18T08:16:20;-4.90;99.90
50067;DHT22;35952;52.524;13.340;2022-12-18T08:18:46;-4.80;99.90
50067;DHT22;35952;52.524;13.340;2022-12-18T08:21:26;-4.80;99.90
50067;DHT22;35952;52.524;13.340;2022-12-18T08:23:53;-5.10;99.90
50067;DHT22;35952;52.524;13.340;2022-12-18T08:26:20;-5.20;99.90
50067;DHT22;35952;52.524;13.340;2022-12-18T08:28:46;-5.20;99.90
50067;DHT22;35952;52.524;13.340;2022-12-18T08:31:11;-5.20;99.90
50067;DHT22;35952;52.524;13.340;2022-12-18T08:33:38;-5.40;99.90
50067;DHT22;35952;52.524;13.340;2022-12-18T08:36:04;-5.20;99.90
50067;DHT22;35952;52.524;13.340;2022-12-18T08:38:31;-5.20;99.90
50067;DHT22;35952;52.524;13.340;2022-12-18T08:41:09;-5.30;99.90
50067;DHT22;35952;52.524;13.340;2022-12-18T08:43:35;-5.30;99.90
50067;DHT22;35952;52.524;13.340;2022-12-18T08:46:20;-5.30;99.90
50067;DHT22;35952;52.524;13.340;2022-12-18T08:48:47;-5.40;99.90
50067;DHT22;35952;52.524;13.340;2022-12-18T08:51:12;-5.30;99.90
50067;DHT22;35952;52.524;13.340;2022-12-18T08:53:38;-5.20;99.90
50067;DHT22;35952;52.524;13.340;2022-12-18T08:56:04;-5.20;99.90
50067;DHT22;35952;52.524;13.340;2022-12-18T08:58:30;-5.20;99.90
50067;DHT22;35952;52.524;13.340;2022-12-18T09:01:07;-5.20;99.90
50067;DHT22;35952;52.524;13.340;2022-12-18T09:03:34;-5.10;99.90
50067;DHT22;35952;52.524;13.340;2022-12-18T09:05:59;-5.20;99.90
50067;DHT22;35952;52.524;13.340;2022-12-18T09:08:25;-5.10;99.90
50067;DHT22;35952;52.524;13.340;2022-12-18T09:10:51;-5.10;99.90
50067;DHT22;35952;52.524;13.340;2022-12-18T09:13:17;-5.00;99.90
50067;DHT22;35952;52.524;13.340;2022-12-18T09:15:48;-4.90;99.90
50067;DHT22;35952;52.524;13.340;2022-12-18T09:18:16;-5.00;99.90
50067;DHT22;35952;52.524;13.340;2022-12-18T09:20:41;-5.10;99.90
50067;DHT22;35952;52.524;13.340;2022-12-18T09:23:08;-5.00;99.90
50067;DHT22;35952;52.524;13.340;2022-12-18T09:25:35;-4.80;99.90
50067;DHT22;35952;52.524;13.340;2022-12-18T09:28:03;-4.80;99.90
50067;DHT22;35952;52.524;13.340;2022-12-18T09:30:29;-4.70;99.90
50067;DHT22;35952;52.524;13.340;2022-12-18T09:32:54;-4.50;99.90
50067;DHT22;35952;52.524;13.340;2022-12-18T09:35:20;-4.80;99.90
50067;DHT22;35952;52.524;13.340;2022-12-18T09:37:46;-4.90;99.90
50067;DHT22;35952;52.524;13.340;2022-12-18T09:40:21;-4.80;99.90
50067;DHT22;35952;52.524;13.340;2022-12-18T09:42:54;-5.00;99.90
50067;DHT22;35952;52.524;13.340;2022-12-18T09:45:21;-4.90;99.90
50067;DHT22;35952;52.524;13.340;2022-12-18T09:47:47;-4.80;99.90
50067;DHT22;35952;52.524;13.340;2022-12-18T09:50:27;-4.60;99.90
50067;DHT22;35952;52.524;13.340;2022-12-18T09:52:57;-4.50;99.90
50067;DHT22;35952;52.524;13.340;2022-12-18T09:57:56;-4.60;99.90
50067;DHT22;35952;52.524;13.340;2022-12-18T10:00:26;-4.40;99.90
50067;DHT22;35952;52.524;13.340;2022-12-18T10:02:53;-4.50;99.90
50067;DHT22;35952;52.524;13.340;2022-12-18T10:05:40;-4.60;99.90
50067;DHT22;35952;52.524;13.340;2022-12-18T10:08:34;-4.60;99.90
50067;DHT22;35952;52.524;13.340;2022-12-18T10:11:22;-4.50;99.90
50067;DHT22;35952;52.524;13.340;2022-12-18T10:22:16;-4.40;99.90
50067;DHT22;35952;52.524;13.340;2022-12-18T10:27:37;-4.30;99.90
50067;DHT22;35952;52.524;13.340;2022-12-18T10:30:12;-4.20;99.90
50067;DHT22;35952;52.524;13.340;2022-12-18T10:32:39;-4.00;99.90
50067;DHT22;35952;52.524;13.340;2022-12-18T10:35:07;-4.10;99.90
50067;DHT22;35952;52.524;13.340;2022-12-18T10:38:00;-4.00;99.90
50067;DHT22;35952;52.524;13.340;2022-12-18T10:40:27;-3.90;99.90
50067;DHT22;35952;52.524;13.340;2022-12-18T10:43:13;-3.90;99.90
50067;DHT22;35952;52.524;13.340;2022-12-18T10:45:40;-3.90;99.90
50067;DHT22;35952;52.524;13.340;2022-12-18T10:48:18;-4.00;99.90
50067;DHT22;35952;52.524;13.340;2022-12-18T10:50:48;-3.80;99.90
50067;DHT22;35952;52.524;13.340;2022-12-18T10:53:20;-3.80;99.90
50067;DHT22;35952;52.524;13.340;2022-12-18T10:55:47;-3.60;99.90
50067;DHT22;35952;52.524;13.340;2022-12-18T10:58:26;-3.50;99.90
50067;DHT22;35952;52.524;13.340;2022-12-18T11:01:14;-3.40;99.90
50067;DHT22;35952;52.524;13.340;2022-12-18T11:03:42;-3.20;99.90
50067;DHT22;35952;52.524;13.340;2022-12-18T11:06:14;-3.20;99.90
50067;DHT22;35952;52.524;13.340;2022-12-18T11:09:00;-3.50;99.90
50067;DHT22;35952;52.524;13.340;2022-12-18T11:11:27;-3.40;99.90
50067;DHT22;35952;52.524;13.340;2022-12-18T11:14:03;-3.60;99.90
50067;DHT22;35952;52.524;13.340;2022-12-18T11:16:33;-3.60;99.90
50067;DHT22;35952;52.524;13.340;2022-12-18T11:19:17;-3.60;99.90
50067;DHT22;35952;52.524;13.340;2022-12-18T11:21:44;-3.30;99.90
50067;DHT22;35952;52.524;13.340;2022-12-18T11:24:39;-3.30;99.90
50067;DHT22;35952;52.524;13.340;2022-12-18T11:27:06;-3.10;99.90
50067;DHT22;35952;52.524;13.340;2022-12-18T11:29:40;-3.40;99.90
50067;DHT22;35952;52.524;13.340;2022-12-18T11:34:50;-3.20;99.90
50067;DHT22;35952;52.524;13.340;2022-12-18T11:37:18;-3.30;99.90
50067;DHT22;35952;52.524;13.340;2022-12-18T11:39:51;-3.30;99.90
50067;DHT22;35952;52.524;13.340;2022-12-18T11:48:01;-3.40;99.90
50067;DHT22;35952;52.524;13.340;2022-12-18T11:50:45;-3.50;99.90
50067;DHT22;35952;52.524;13.340;2022-12-18T11:53:12;-3.20;99.90
50067;DHT22;35952;52.524;13.340;2022-12-18T12:01:10;-3.50;99.90
50067;DHT22;35952;52.524;13.340;2022-12-18T12:04:16;-3.50;99.90
50067;DHT22;35952;52.524;13.340;2022-12-18T12:12:37;-3.30;99.90
50067;DHT22;35952;52.524;13.340;2022-12-18T12:18:26;-3.40;99.90
50067;DHT22;35952;52.524;13.340;2022-12-18T12:21:06;-3.30;99.90
50067;DHT22;35952;52.524;13.340;2022-12-18T12:29:15;-3.30;99.90
50067;DHT22;35952;52.524;13.340;2022-12-18T12:31:58;-3.40;99.90
50067;DHT22;35952;52.524;13.340;2022-12-18T12:34:56;-3.30;99.90
50067;DHT22;35952;52.524;13.340;2022-12-18T12:40:18;-3.50;99.90
50067;DHT22;35952;52.524;13.340;2022-12-18T12:42:51;-3.40;99.90
50067;DHT22;35952;52.524;13.340;2022-12-18T12:45:51;-3.50;99.90
50067;DHT22;35952;52.524;13.340;2022-12-18T12:48:48;-3.50;99.90
50067;DHT22;35952;52.524;13.340;2022-12-18T12:51:21;-3.60;99.90
50067;DHT22;35952;52.524;13.340;2022-12-18T12:53:48;-3.50;99.90
50067;DHT22;35952;52.524;13.340;2022-12-18T12:56:16;-3.50;99.90
50067;DHT22;35952;52.524;13.340;2022-12-18T12:58:54;-3.50;99.90
50067;DHT22;35952;52.524;13.340;2022-12-18T13:01:49;-3.30;99.90
50067;DHT22;35952;52.524;13.340;2022-12-18T13:07:19;-3.20;99.90
50067;DHT22;35952;52.524;13.340;2022-12-18T13:13:00;-3.10;99.90
50067;DHT22;35952;52.524;13.340;2022-12-18T13:15:43;-2.90;99.90
50067;DHT22;35952;52.524;13.340;2022-12-18T13:20:38;-2.90;99.90
50067;DHT22;35952;52.524;13.340;2022-12-18T13:25:59;-3.10;99.90
50067;DHT22;35952;52.524;13.340;2022-12-18T13:34:21;-2.90;99.90
50067;DHT22;35952;52.524;13.340;2022-12-18T13:36:47;-2.70;99.90
50067;DHT22;35952;52.524;13.340;2022-12-18T13:41:45;-2.60;99.90
50067;DHT22;35952;52.524;13.340;2022-12-18T13:44:24;-2.60;99.90
50067;DHT22;35952;52.524;13.340;2022-12-18T13:46:51;-2.60;99.90
50067;DHT22;35952;52.524;13.340;2022-12-18T13:49:36;-2.60;99.90
50067;DHT22;35952;52.524;13.340;2022-12-18T13:52:18;-2.60;99.90
50067;DHT22;35952;52.524;13.340;2022-12-18T13:54:49;-2.60;99.90
50067;DHT22;35952;52.524;13.340;2022-12-18T13:57:34;-2.80;99.90
50067;DHT22;35952;52.524;13.340;2022-12-18T14:02:48;-3.20;99.90
50067;DHT22;35952;52.524;13.340;2022-12-18T14:05:32;-3.30;99.90
50067;DHT22;35952;52.524;13.340;2022-12-18T14:08:08;-3.30;99.90
50067;DHT22;35952;52.524;13.340;2022-12-18T14:10:44;-3.30;99.90
50067;DHT22;35952;52.524;13.340;2022-12-18T14:13:13;-3.20;99.90
50067;DHT22;35952;52.524;13.340;2022-12-18T14:15:42;-3.00;99.90
50067;DHT22;35952;52.524;13.340;2022-12-18T14:18:48;-2.90;99.90
50067;DHT22;35952;52.524;13.340;2022-12-18T14:21:26;-3.00;99.90
50067;DHT22;35952;52.524;13.340;2022-12-18T14:26:37;-3.00;99.90
50067;DHT22;35952;52.524;13.340;2022-12-18T14:29:28;-3.20;99.90
50067;DHT22;35952;52.524;13.340;2022-12-18T14:32:05;-3.20;99.90
50067;DHT22;35952;52.524;13.340;2022-12-18T14:34:30;-3.00;99.90
50067;DHT22;35952;52.524;13.340;2022-12-18T14:36:56;-3.00;99.90
50067;DHT22;35952;52.524;13.340;2022-12-18T14:39:22;-3.00;99.90
50067;DHT22;35952;52.524;13.340;2022-12-18T14:41:49;-3.10;99.90
50067;DHT22;35952;52.524;13.340;2022-12-18T14:44:15;-3.20;99.90
50067;DHT22;35952;52.524;13.340;2022-12-18T14:46:43;-3.20;99.90
50067;DHT22;35952;52.524;13.340;2022-12-18T14:51:55;-3.60;99.90
50067;DHT22;35952;52.524;13.340;2022-12-18T14:54:22;-3.60;99.90
50067;DHT22;35952;52.524;13.340;2022-12-18T14:57:20;-3.40;99.90
50067;DHT22;35952;52.524;13.340;2022-12-18T14:59:46;-3.30;99.90
50067;DHT22;35952;52.524;13.340;2022-12-18T15:02:22;-3.50;99.90
50067;DHT22;35952;52.524;13.340;2022-12-18T15:05:03;-3.40;99.90
50067;DHT22;35952;52.524;13.340;2022-12-18T15:07:51;-3.40;99.90
50067;DHT22;35952;52.524;13.340;2022-12-18T15:10:29;-3.30;99.90
50067;DHT22;35952;52.524;13.340;2022-12-18T15:20:54;-3.40;99.90
50067;DHT22;35952;52.524;13.340;2022-12-18T15:26:10;-3.50;99.90
50067;DHT22;35952;52.524;13.340;2022-12-18T15:28:57;-3.50;99.90
50067;DHT22;35952;52.524;13.340;2022-12-18T15:31:29;-3.60;99.90
50067;DHT22;35952;52.524;13.340;2022-12-18T15:36:23;-3.70;99.90
50067;DHT22;35952;52.524;13.340;2022-12-18T15:38:57;-3.70;99.90
50067;DHT22;35952;52.524;13.340;2022-12-18T15:41:23;-3.70;99.90
50067;DHT22;35952;52.524;13.340;2022-12-18T15:43:50;-3.70;99.90
50067;DHT22;35952;52.524;13.340;2022-12-18T15:46:21;-3.70;99.90
50067;DHT22;35952;52.524;13.340;2022-12-18T15:48:47;-3.70;99.90
50067;DHT22;35952;52.524;13.340;2022-12-18T15:51:19;-3.80;99.90
50067;DHT22;35952;52.524;13.340;2022-12-18T15:53:47;-3.90;99.90
50067;DHT22;35952;52.524;13.340;2022-12-18T15:56:14;-3.80;99.90
50067;DHT22;35952;52.524;13.340;2022-12-18T15:59:00;-3.70;99.90
50067;DHT22;35952;52.524;13.340;2022-12-18T16:01:28;-3.50;99.90
50067;DHT22;35952;52.524;13.340;2022-12-18T16:03:57;-3.50;99.90
50067;DHT22;35952;52.524;13.340;2022-12-18T16:06:23;-3.40;99.90
50067;DHT22;35952;52.524;13.340;2022-12-18T16:08:55;-3.30;99.90
50067;DHT22;35952;52.524;13.340;2022-12-18T16:11:23;-3.40;99.90
50067;DHT22;35952;52.524;13.340;2022-12-18T16:14:12;-3.70;99.90
50067;DHT22;35952;52.524;13.340;2022-12-18T16:16:40;-3.80;99.90
50067;DHT22;35952;52.524;13.340;2022-12-18T16:19:07;-3.70;99.90
50067;DHT22;35952;52.524;13.340;2022-12-18T16:21:32;-3.80;99.90
50067;DHT22;35952;52.524;13.340;2022-12-18T16:23:58;-3.80;99.90
50067;DHT22;35952;52.524;13.340;2022-12-18T16:26:23;-3.80;99.90
50067;DHT22;35952;52.524;13.340;2022-12-18T16:28:48;-3.90;99.90
50067;DHT22;35952;52.524;13.340;2022-12-18T16:31:14;-3.70;99.90
50067;DHT22;35952;52.524;13.340;2022-12-18T16:33:40;-3.80;99.90
50067;DHT22;35952;52.524;13.340;2022-12-18T16:36:05;-3.70;99.90
50067;DHT22;35952;52.524;13.340;2022-12-18T16:38:31;-3.80;99.90
50067;DHT22;35952;52.524;13.340;2022-12-18T16:40:56;-3.90;99.90
50067;DHT22;35952;52.524;13.340;2022-12-18T16:43:41;-3.80;99.90
50067;DHT22;35952;52.524;13.340;2022-12-18T16:46:06;-3.90;99.90
50067;DHT22;35952;52.524;13.340;2022-12-18T16:48:32;-3.90;99.90
50067;DHT22;35952;52.524;13.340;2022-12-18T16:51:02;-3.90;99.90
50067;DHT22;35952;52.524;13.340;2022-12-18T16:53:28;-4.00;99.90
50067;DHT22;35952;52.524;13.340;2022-12-18T16:55:56;-4.00;99.90
50067;DHT22;35952;52.524;13.340;2022-12-18T16:58:22;-4.00;99.90
50067;DHT22;35952;52.524;13.340;2022-12-18T17:00:47;-3.80;99.90
50067;DHT22;35952;52.524;13.340;2022-12-18T17:03:13;-3.80;99.90
50067;DHT22;35952;52.524;13.340;2022-12-18T17:05:39;-3.70;99.90
50067;DHT22;35952;52.524;13.340;2022-12-18T17:08:04;-3.60;99.90
50067;DHT22;35952;52.524;13.340;2022-12-18T17:10:30;-3.50;99.90
50067;DHT22;35952;52.524;13.340;2022-12-18T17:12:55;-3.70;99.90
50067;DHT22;35952;52.524;13.340;2022-12-18T17:15:21;-3.70;99.90
50067;DHT22;35952;52.524;13.340;2022-12-18T17:17:47;-3.80;99.90
50067;DHT22;35952;52.524;13.340;2022-12-18T17:20:13;-3.80;99.90
50067;DHT22;35952;52.524;13.340;2022-12-18T17:22:38;-3.90;99.90